Time;durP1;ratioP1;P1;durP2;ratioP2;P2;SDS_P1;SDS_P2;PMS_P1;PMS_P2;Temp;Humidity;BMP_temperature;BMP_pressure;BME280_temperature;BME280_humidity;BME280_pressure;Samples;Min_cycle;Max_cycle;Signal;HPM_P1;HPM_P2
2023/07/25 00:02:03;;;;;;;;;;;20.50;66.00;;;;;;5114333;28;19935;-68
2023/07/25 00:04:28;;;;;;;;;;;20.50;66.00;;;;;;5096057;28;19920;-67
2023/07/25 00:06:54;;;;;;;;;;;20.50;66.00;;;;;;5095764;28;19920;-67
2023/07/25 00:09:19;;;;;;;;;;;20.50;66.00;;;;;;5095903;28;19946;-67
2023/07/25 00:11:46;;;;;;;;;;;20.50;66.00;;;;;;5095624;28;19923;-67
2023/07/25 00:14:11;;;;;;;;;;;20.50;66.00;;;;;;5113556;28;20271;-67
2023/07/25 00:16:36;;;;;;;;;;;20.50;65.90;;;;;;5113701;28;19934;-67
2023/07/25 00:19:02;;;;;;;;;;;20.50;65.90;;;;;;5095786;28;19926;-67
2023/07/25 00:21:27;;;;;;;;;;;20.50;65.90;;;;;;5095437;28;19920;-67
2023/07/25 00:23:53;;;;;;;;;;;20.40;65.80;;;;;;5113698;28;19927;-67
2023/07/25 00:26:18;;;;;;;;;;;20.40;65.80;;;;;;5095559;28;19927;-67
2023/07/25 00:28:44;;;;;;;;;;;20.40;65.80;;;;;;5095609;28;19953;-68
2023/07/25 00:31:09;;;;;;;;;;;20.40;65.80;;;;;;5095517;28;19920;-68
2023/07/25 00:33:35;;;;;;;;;;;20.40;65.80;;;;;;5095288;28;20376;-67
2023/07/25 00:36:00;;;;;;;;;;;20.40;65.80;;;;;;5095317;28;19931;-68
2023/07/25 00:38:26;;;;;;;;;;;20.40;65.80;;;;;;5095174;28;20263;-67
2023/07/25 00:40:51;;;;;;;;;;;20.40;65.80;;;;;;5095382;28;19974;-67
2023/07/25 00:43:16;;;;;;;;;;;20.40;65.80;;;;;;5095111;28;20370;-68
2023/07/25 00:45:42;;;;;;;;;;;20.40;65.80;;;;;;5094962;28;19920;-67
2023/07/25 00:48:08;;;;;;;;;;;20.40;65.80;;;;;;5095391;28;20286;-68
2023/07/25 00:50:33;;;;;;;;;;;20.40;65.70;;;;;;5094920;28;19945;-68
2023/07/25 00:53:00;;;;;;;;;;;20.40;65.70;;;;;;5095237;28;20018;-68
2023/07/25 00:55:27;;;;;;;;;;;20.40;65.80;;;;;;5113044;28;19970;-68
2023/07/25 00:57:52;;;;;;;;;;;20.40;65.70;;;;;;5094882;28;19962;-68
2023/07/25 01:00:18;;;;;;;;;;;20.40;65.70;;;;;;5094706;28;19962;-67
2023/07/25 01:02:43;;;;;;;;;;;20.40;65.70;;;;;;5094758;28;19923;-67
2023/07/25 01:05:09;;;;;;;;;;;20.40;65.70;;;;;;5094794;28;19919;-68
2023/07/25 01:07:35;;;;;;;;;;;20.40;65.60;;;;;;5094300;28;19945;-68
2023/07/25 01:10:00;;;;;;;;;;;20.40;65.60;;;;;;5094964;28;20286;-68
2023/07/25 01:12:26;;;;;;;;;;;20.30;65.60;;;;;;5112786;28;19924;-67
2023/07/25 01:14:51;;;;;;;;;;;20.30;65.60;;;;;;5112662;28;20401;-67
2023/07/25 01:17:21;;;;;;;;;;;20.30;65.60;;;;;;5093946;28;21282;-68
2023/07/25 01:19:47;;;;;;;;;;;20.30;65.60;;;;;;5112812;28;20006;-67
2023/07/25 01:22:12;;;;;;;;;;;20.30;65.50;;;;;;5094499;28;19920;-67
2023/07/25 01:24:42;;;;;;;;;;;20.30;65.50;;;;;;5094873;28;19919;-68
2023/07/25 01:27:08;;;;;;;;;;;20.30;65.50;;;;;;5112750;28;20294;-67
2023/07/25 01:29:33;;;;;;;;;;;20.30;65.50;;;;;;5112775;28;19965;-67
2023/07/25 01:31:58;;;;;;;;;;;20.30;65.40;;;;;;5094613;28;19920;-67
2023/07/25 01:34:24;;;;;;;;;;;20.30;65.50;;;;;;5094752;28;19926;-67
2023/07/25 01:36:49;;;;;;;;;;;20.30;65.40;;;;;;5112706;28;19976;-67
2023/07/25 01:39:15;;;;;;;;;;;20.30;65.40;;;;;;5094841;28;20018;-67
2023/07/25 01:41:41;;;;;;;;;;;20.30;65.40;;;;;;5112543;28;19980;-67
2023/07/25 01:44:07;;;;;;;;;;;20.30;65.40;;;;;;5112666;28;19919;-67
2023/07/25 01:46:32;;;;;;;;;;;20.30;65.40;;;;;;5112529;28;19927;-67
2023/07/25 01:48:58;;;;;;;;;;;20.30;65.40;;;;;;5094238;28;19920;-67
2023/07/25 01:51:24;;;;;;;;;;;20.30;65.40;;;;;;5094333;28;20022;-67
2023/07/25 01:53:50;;;;;;;;;;;20.30;65.40;;;;;;5112582;28;19927;-67
2023/07/25 01:56:16;;;;;;;;;;;20.30;65.40;;;;;;5094135;28;20409;-68
2023/07/25 01:58:41;;;;;;;;;;;20.30;65.30;;;;;;5094522;28;19967;-67
2023/07/25 02:01:07;;;;;;;;;;;20.20;65.20;;;;;;5094242;28;19927;-67
2023/07/25 02:03:32;;;;;;;;;;;20.20;65.30;;;;;;5094302;28;19920;-68
2023/07/25 02:05:58;;;;;;;;;;;20.30;65.30;;;;;;5112396;28;19920;-72
2023/07/25 02:08:23;;;;;;;;;;;20.20;65.20;;;;;;5094348;28;19920;-68
2023/07/25 02:10:49;;;;;;;;;;;20.20;65.20;;;;;;5094461;28;19942;-68
2023/07/25 02:13:14;;;;;;;;;;;20.20;65.10;;;;;;5094002;28;19920;-67
2023/07/25 02:15:40;;;;;;;;;;;20.20;65.20;;;;;;5111987;28;19923;-67
2023/07/25 02:18:05;;;;;;;;;;;20.20;65.20;;;;;;5094160;28;20428;-67
2023/07/25 02:20:31;;;;;;;;;;;20.20;65.10;;;;;;5098143;28;19919;-67
2023/07/25 02:22:57;;;;;;;;;;;20.20;65.10;;;;;;5097983;28;19955;-67
2023/07/25 02:25:22;;;;;;;;;;;20.20;65.10;;;;;;5097903;28;19920;-67
2023/07/25 02:27:48;;;;;;;;;;;20.20;65.10;;;;;;5097930;28;19927;-67
2023/07/25 02:30:13;;;;;;;;;;;20.20;65.10;;;;;;5097677;28;19919;-68
2023/07/25 02:32:39;;;;;;;;;;;20.20;65.10;;;;;;5097640;28;19920;-67
2023/07/25 02:35:05;;;;;;;;;;;20.20;65.10;;;;;;5097565;28;19924;-68
2023/07/25 02:37:30;;;;;;;;;;;20.20;65.00;;;;;;5115816;28;19927;-68
2023/07/25 02:39:55;;;;;;;;;;;20.20;65.10;;;;;;5097444;28;20406;-67
2023/07/25 02:42:21;;;;;;;;;;;20.20;65.00;;;;;;5115820;28;19927;-67
2023/07/25 02:44:46;;;;;;;;;;;20.20;65.00;;;;;;5097335;28;19927;-67
2023/07/25 02:47:12;;;;;;;;;;;20.10;65.00;;;;;;5097665;28;19919;-67
2023/07/25 02:49:38;;;;;;;;;;;20.20;65.00;;;;;;5097192;28;20006;-68
2023/07/25 02:52:04;;;;;;;;;;;20.10;64.90;;;;;;5115715;28;20310;-68
2023/07/25 02:54:29;;;;;;;;;;;20.10;64.90;;;;;;5097380;28;19920;-71
2023/07/25 02:56:55;;;;;;;;;;;20.10;64.90;;;;;;5097044;28;20039;-67
2023/07/25 02:59:20;;;;;;;;;;;20.10;64.90;;;;;;5097295;28;19934;-72
2023/07/25 03:01:46;;;;;;;;;;;20.10;64.90;;;;;;5097341;28;19920;-67
2023/07/25 03:04:11;;;;;;;;;;;20.10;64.90;;;;;;5096949;28;20333;-67
2023/07/25 03:06:36;;;;;;;;;;;20.10;64.80;;;;;;5097112;28;19919;-67
2023/07/25 03:09:03;;;;;;;;;;;20.10;64.80;;;;;;5096850;28;19972;-67
2023/07/25 03:11:28;;;;;;;;;;;20.10;64.80;;;;;;5096942;28;19972;-67
2023/07/25 03:13:54;;;;;;;;;;;20.10;64.80;;;;;;5097137;28;19920;-72
2023/07/25 03:16:19;;;;;;;;;;;20.10;64.80;;;;;;5096386;28;19931;-67
2023/07/25 03:18:45;;;;;;;;;;;20.10;64.90;;;;;;5115003;28;20033;-67
2023/07/25 03:21:10;;;;;;;;;;;20.10;64.90;;;;;;5096862;28;20376;-68
2023/07/25 03:23:36;;;;;;;;;;;20.10;64.80;;;;;;5096630;28;19973;-67
2023/07/25 03:26:01;;;;;;;;;;;20.10;64.80;;;;;;5096579;28;19924;-67
2023/07/25 03:28:27;;;;;;;;;;;20.10;64.80;;;;;;5096748;28;19920;-67
2023/07/25 03:30:52;;;;;;;;;;;20.10;64.80;;;;;;5096540;28;19919;-67
2023/07/25 03:33:17;;;;;;;;;;;20.10;64.80;;;;;;5114750;28;19924;-72
2023/07/25 03:35:43;;;;;;;;;;;20.10;64.80;;;;;;5096210;28;19930;-67
2023/07/25 03:38:08;;;;;;;;;;;20.10;64.70;;;;;;5096328;28;19920;-67
2023/07/25 03:40:34;;;;;;;;;;;20.10;64.80;;;;;;5096504;28;20019;-72
2023/07/25 03:42:59;;;;;;;;;;;20.10;64.70;;;;;;5096617;28;19965;-67
2023/07/25 03:45:25;;;;;;;;;;;20.10;64.80;;;;;;5096162;28;20299;-72
2023/07/25 03:47:51;;;;;;;;;;;20.00;64.70;;;;;;5114843;28;19972;-68
2023/07/25 03:50:16;;;;;;;;;;;20.00;64.60;;;;;;5096376;28;19927;-68
2023/07/25 03:52:42;;;;;;;;;;;20.00;64.70;;;;;;5095853;28;19920;-68
2023/07/25 03:55:07;;;;;;;;;;;20.00;64.70;;;;;;5095955;28;19927;-67
2023/07/25 03:57:33;;;;;;;;;;;20.00;64.60;;;;;;5096240;28;20004;-68
2023/07/25 03:59:58;;;;;;;;;;;20.00;64.70;;;;;;5096155;28;19923;-67
2023/07/25 04:02:24;;;;;;;;;;;20.00;64.60;;;;;;5095775;28;20305;-68
2023/07/25 04:04:49;;;;;;;;;;;20.00;64.70;;;;;;5096163;28;19920;-72
2023/07/25 04:07:15;;;;;;;;;;;20.00;64.60;;;;;;5095927;28;20014;-67
2023/07/25 04:09:40;;;;;;;;;;;20.00;64.60;;;;;;5095719;28;19926;-68
2023/07/25 04:12:06;;;;;;;;;;;20.00;64.60;;;;;;5095626;28;19977;-67
2023/07/25 04:14:31;;;;;;;;;;;20.00;64.60;;;;;;5113716;28;19930;-67
2023/07/25 04:16:57;;;;;;;;;;;20.00;64.60;;;;;;5095464;28;19997;-67
2023/07/25 04:19:22;;;;;;;;;;;20.00;64.60;;;;;;5113876;28;19965;-67
2023/07/25 04:21:48;;;;;;;;;;;20.00;64.60;;;;;;5113725;28;19919;-67
2023/07/25 04:24:13;;;;;;;;;;;20.00;64.60;;;;;;5095747;28;19927;-68
2023/07/25 04:26:39;;;;;;;;;;;20.00;64.50;;;;;;5095425;28;19920;-67
2023/07/25 04:29:04;;;;;;;;;;;20.00;64.60;;;;;;5095611;28;19920;-67
2023/07/25 04:31:30;;;;;;;;;;;20.00;64.50;;;;;;5095329;28;20413;-68
2023/07/25 04:33:55;;;;;;;;;;;20.00;64.60;;;;;;5095284;28;19948;-67
2023/07/25 04:36:20;;;;;;;;;;;20.00;64.50;;;;;;5095375;28;19947;-68
2023/07/25 04:38:46;;;;;;;;;;;20.00;64.50;;;;;;5095065;28;20060;-67
2023/07/25 04:41:11;;;;;;;;;;;20.00;64.50;;;;;;5094684;28;19927;-67
2023/07/25 04:43:37;;;;;;;;;;;20.00;64.50;;;;;;5095060;28;20289;-67
2023/07/25 04:46:02;;;;;;;;;;;20.00;64.50;;;;;;5095090;28;19920;-68
2023/07/25 04:48:28;;;;;;;;;;;20.00;64.50;;;;;;5113326;28;19920;-67
2023/07/25 04:50:53;;;;;;;;;;;20.00;64.50;;;;;;5095322;28;19920;-67
2023/07/25 04:53:19;;;;;;;;;;;20.00;64.50;;;;;;5095227;28;19920;-67
2023/07/25 04:55:44;;;;;;;;;;;19.90;64.40;;;;;;5095014;28;19931;-72
2023/07/25 04:58:10;;;;;;;;;;;20.00;64.50;;;;;;5095129;28;19919;-67
2023/07/25 05:00:35;;;;;;;;;;;19.90;64.40;;;;;;5113090;28;20425;-68
2023/07/25 05:03:00;;;;;;;;;;;19.90;64.40;;;;;;5095026;28;19942;-67
2023/07/25 05:05:26;;;;;;;;;;;19.90;64.40;;;;;;5094779;28;19927;-67
2023/07/25 05:07:52;;;;;;;;;;;19.90;64.40;;;;;;5095075;28;19920;-68
2023/07/25 05:10:17;;;;;;;;;;;19.90;64.40;;;;;;5094855;28;19920;-68
2023/07/25 05:12:43;;;;;;;;;;;19.90;64.40;;;;;;5095000;28;19927;-67
2023/07/25 05:15:08;;;;;;;;;;;19.90;64.40;;;;;;5094393;28;19956;-67
2023/07/25 05:17:34;;;;;;;;;;;19.90;64.30;;;;;;5094650;28;19951;-67
2023/07/25 05:19:59;;;;;;;;;;;19.90;64.40;;;;;;5094889;28;19927;-67
2023/07/25 05:22:25;;;;;;;;;;;19.90;64.40;;;;;;5094598;28;20390;-68
2023/07/25 05:24:50;;;;;;;;;;;19.90;64.40;;;;;;5112720;28;19920;-67
2023/07/25 05:27:16;;;;;;;;;;;19.90;64.40;;;;;;5094857;28;20524;-67
2023/07/25 05:29:42;;;;;;;;;;;19.90;64.30;;;;;;5112883;28;20337;-67
2023/07/25 05:32:07;;;;;;;;;;;19.90;64.30;;;;;;5112867;28;19920;-67
2023/07/25 05:34:33;;;;;;;;;;;19.90;64.30;;;;;;5113059;28;19920;-67
2023/07/25 05:36:58;;;;;;;;;;;19.90;64.30;;;;;;5094381;28;19920;-68
2023/07/25 05:39:24;;;;;;;;;;;19.90;64.30;;;;;;5112628;28;20299;-67
2023/07/25 05:41:49;;;;;;;;;;;19.90;64.30;;;;;;5094657;28;19920;-68
2023/07/25 05:44:15;;;;;;;;;;;19.90;64.30;;;;;;5094457;28;19920;-67
2023/07/25 05:46:40;;;;;;;;;;;19.90;64.30;;;;;;5112684;28;19920;-68
2023/07/25 05:49:05;;;;;;;;;;;19.90;64.20;;;;;;5094371;28;19923;-67
2023/07/25 05:51:31;;;;;;;;;;;19.90;64.30;;;;;;5112124;28;19942;-67
2023/07/25 05:53:56;;;;;;;;;;;19.90;64.20;;;;;;5096788;28;19927;-69
2023/07/25 05:56:22;;;;;;;;;;;19.90;64.30;;;;;;5098129;28;20375;-69
2023/07/25 05:58:47;;;;;;;;;;;19.90;64.10;;;;;;5098211;28;19923;-69
2023/07/25 06:01:13;;;;;;;;;;;19.90;64.10;;;;;;5098479;28;19926;-70
2023/07/25 06:03:38;;;;;;;;;;;19.90;64.10;;;;;;5098061;28;20379;-69
2023/07/25 06:06:04;;;;;;;;;;;19.90;63.90;;;;;;5116383;28;20173;-69
2023/07/25 06:08:29;;;;;;;;;;;20.00;63.90;;;;;;5098099;28;19927;-70
2023/07/25 06:10:55;;;;;;;;;;;19.90;63.80;;;;;;5098163;28;19923;-69
2023/07/25 06:13:20;;;;;;;;;;;20.00;63.80;;;;;;5098286;28;19920;-68
2023/07/25 06:15:47;;;;;;;;;;;20.00;63.80;;;;;;5097638;28;20259;-69
2023/07/25 06:18:12;;;;;;;;;;;20.00;63.70;;;;;;5098239;28;19919;-69
2023/07/25 06:20:38;;;;;;;;;;;19.90;63.60;;;;;;5097855;28;20317;-69
2023/07/25 06:23:04;;;;;;;;;;;20.00;63.60;;;;;;5098250;28;19926;-69
2023/07/25 06:25:29;;;;;;;;;;;20.00;63.60;;;;;;5097896;28;20401;-69
2023/07/25 06:27:55;;;;;;;;;;;20.00;63.60;;;;;;5115864;28;20167;-70
2023/07/25 06:30:20;;;;;;;;;;;20.00;63.50;;;;;;5116190;28;20020;-69
2023/07/25 06:32:46;;;;;;;;;;;20.00;63.50;;;;;;5097603;28;19935;-68
2023/07/25 06:35:12;;;;;;;;;;;20.00;64.20;;;;;;5115795;28;19919;-69
2023/07/25 06:37:37;;;;;;;;;;;20.00;63.50;;;;;;5097776;28;20397;-69
2023/07/25 06:40:03;;;;;;;;;;;20.00;63.40;;;;;;5097584;28;19920;-69
2023/07/25 06:42:29;;;;;;;;;;;20.00;63.40;;;;;;5115701;28;19919;-70
2023/07/25 06:44:55;;;;;;;;;;;20.00;63.30;;;;;;5097800;28;19927;-69
2023/07/25 06:47:21;;;;;;;;;;;20.00;63.30;;;;;;5115597;28;19926;-68
2023/07/25 06:49:46;;;;;;;;;;;20.00;63.30;;;;;;5097559;28;20309;-68
2023/07/25 06:52:12;;;;;;;;;;;20.10;63.30;;;;;;5115624;28;19920;-69
2023/07/25 06:54:37;;;;;;;;;;;20.00;63.20;;;;;;5097661;28;19926;-69
2023/07/25 06:57:03;;;;;;;;;;;20.00;63.20;;;;;;5097067;28;19924;-70
2023/07/25 06:59:29;;;;;;;;;;;20.00;63.10;;;;;;5097329;28;20002;-68
2023/07/25 07:01:55;;;;;;;;;;;20.00;63.10;;;;;;5096348;28;19924;-70
2023/07/25 07:04:21;;;;;;;;;;;20.00;63.20;;;;;;5096197;28;20294;-69
2023/07/25 07:06:46;;;;;;;;;;;20.00;63.10;;;;;;5115782;28;20358;-70
2023/07/25 07:09:12;;;;;;;;;;;20.00;63.10;;;;;;5097290;28;20358;-69
2023/07/25 07:11:38;;;;;;;;;;;20.00;63.00;;;;;;5096815;28;19920;-68
2023/07/25 07:14:04;;;;;;;;;;;20.00;63.00;;;;;;5096825;28;19948;-70
2023/07/25 07:16:29;;;;;;;;;;;20.00;62.90;;;;;;5093044;28;20001;-69
2023/07/25 07:18:55;;;;;;;;;;;20.00;62.90;;;;;;5094717;28;20053;-70
2023/07/25 07:21:20;;;;;;;;;;;20.00;62.90;;;;;;5094751;28;19920;-70
2023/07/25 07:23:46;;;;;;;;;;;20.00;62.80;;;;;;5093209;28;19924;-68
2023/07/25 07:26:11;;;;;;;;;;;20.00;62.80;;;;;;5093539;28;19926;-69
2023/07/25 07:28:37;;;;;;;;;;;20.00;62.70;;;;;;5093483;28;19926;-69
2023/07/25 07:31:02;;;;;;;;;;;20.00;62.80;;;;;;5092534;28;19926;-69
2023/07/25 07:33:29;;;;;;;;;;;20.00;62.80;;;;;;5092075;28;20570;-69
2023/07/25 07:35:54;;;;;;;;;;;20.00;62.70;;;;;;5091723;28;19938;-70
2023/07/25 07:38:20;;;;;;;;;;;20.10;62.80;;;;;;5093684;28;20007;-69
2023/07/25 07:40:45;;;;;;;;;;;20.10;62.80;;;;;;5087153;28;20388;-69
2023/07/25 07:43:11;;;;;;;;;;;20.10;62.80;;;;;;5104030;28;19920;-69
2023/07/25 07:45:36;;;;;;;;;;;20.00;62.70;;;;;;5092707;28;19928;-69
2023/07/25 07:48:02;;;;;;;;;;;20.10;62.60;;;;;;5093066;28;19986;-69
2023/07/25 07:50:29;;;;;;;;;;;20.00;62.30;;;;;;5094379;28;19973;-69
2023/07/25 07:52:54;;;;;;;;;;;20.00;62.20;;;;;;5093449;28;19920;-68
2023/07/25 07:55:20;;;;;;;;;;;20.00;62.30;;;;;;5092117;28;19935;-69
2023/07/25 07:57:46;;;;;;;;;;;20.00;62.20;;;;;;5091737;28;19923;-68
2023/07/25 08:00:14;;;;;;;;;;;20.00;62.30;;;;;;5111282;27;19974;-69
2023/07/25 08:02:40;;;;;;;;;;;20.00;62.10;;;;;;5111996;28;19919;-68
2023/07/25 08:05:06;;;;;;;;;;;20.00;62.00;;;;;;5112758;28;19972;-68
2023/07/25 08:07:31;;;;;;;;;;;20.00;61.80;;;;;;5104162;28;19920;-69
2023/07/25 08:09:57;;;;;;;;;;;20.00;61.60;;;;;;5090949;28;19920;-68
2023/07/25 08:12:23;;;;;;;;;;;20.00;61.60;;;;;;5091716;28;19924;-69
2023/07/25 08:14:48;;;;;;;;;;;20.00;61.50;;;;;;5091105;28;19950;-68
2023/07/25 08:17:14;;;;;;;;;;;20.00;61.20;;;;;;5091891;28;20391;-69
2023/07/25 08:19:39;;;;;;;;;;;20.00;61.20;;;;;;5093269;28;19931;-69
2023/07/25 08:22:05;;;;;;;;;;;20.00;60.90;;;;;;5092050;28;19924;-68
2023/07/25 08:24:32;;;;;;;;;;;20.00;60.90;;;;;;5092329;28;19920;-68
2023/07/25 08:26:58;;;;;;;;;;;20.00;60.80;;;;;;5093170;28;19965;-68
2023/07/25 08:29:23;;;;;;;;;;;20.00;60.60;;;;;;5091978;28;19920;-68
2023/07/25 08:31:48;;;;;;;;;;;20.00;60.50;;;;;;5091903;28;19920;-68
2023/07/25 08:34:14;;;;;;;;;;;20.00;60.50;;;;;;5092073;28;19983;-69
2023/07/25 08:36:39;;;;;;;;;;;20.00;60.40;;;;;;5093095;28;20010;-69
2023/07/25 08:39:05;;;;;;;;;;;20.10;60.30;;;;;;5091085;28;19924;-68
2023/07/25 08:41:32;;;;;;;;;;;20.10;60.40;;;;;;5091527;28;20003;-67
2023/07/25 08:44:00;;;;;;;;;;;20.10;60.30;;;;;;5091981;28;19924;-68
2023/07/25 08:46:27;;;;;;;;;;;20.10;60.30;;;;;;5091922;28;19928;-68
2023/07/25 08:48:55;;;;;;;;;;;20.10;60.10;;;;;;5090854;28;19965;-68
2023/07/25 08:51:21;;;;;;;;;;;20.10;60.10;;;;;;5091205;28;20010;-69
2023/07/25 08:53:56;;;;;;;;;;;20.10;60.00;;;;;;5117341;27;19924;-68
2023/07/25 08:56:22;;;;;;;;;;;20.10;60.00;;;;;;5094010;28;19924;-69
2023/07/25 08:58:48;;;;;;;;;;;20.10;60.00;;;;;;5091298;28;19942;-68
2023/07/25 09:01:14;;;;;;;;;;;20.10;60.00;;;;;;5091583;28;20275;-69
2023/07/25 09:03:39;;;;;;;;;;;20.20;60.00;;;;;;5091200;28;19920;-68
2023/07/25 09:06:05;;;;;;;;;;;20.10;60.00;;;;;;5092759;28;19924;-69
2023/07/25 09:08:31;;;;;;;;;;;20.20;60.00;;;;;;5092608;28;20314;-69
2023/07/25 09:10:57;;;;;;;;;;;20.20;59.90;;;;;;5090612;28;19920;-69
2023/07/25 09:13:23;;;;;;;;;;;20.20;59.80;;;;;;5091174;28;19920;-68
2023/07/25 09:15:48;;;;;;;;;;;20.20;60.00;;;;;;5090967;28;19956;-68
2023/07/25 09:18:14;;;;;;;;;;;20.20;59.70;;;;;;5091479;28;20205;-68
2023/07/25 09:20:40;;;;;;;;;;;20.20;59.60;;;;;;5091128;28;19924;-69
2023/07/25 09:23:05;;;;;;;;;;;20.20;59.50;;;;;;5090566;28;19968;-68
2023/07/25 09:25:31;;;;;;;;;;;20.30;59.40;;;;;;5091031;28;19920;-68
2023/07/25 09:27:56;;;;;;;;;;;20.30;59.60;;;;;;5090067;28;19920;-68
2023/07/25 09:30:26;;;;;;;;;;;20.30;59.40;;;;;;5092400;28;19934;-68
2023/07/25 09:32:51;;;;;;;;;;;20.30;59.40;;;;;;5090929;28;19920;-68
2023/07/25 09:35:17;;;;;;;;;;;20.30;59.30;;;;;;5092469;28;19928;-68
2023/07/25 09:37:50;;;;;;;;;;;20.30;59.20;;;;;;5091518;28;20394;-68
2023/07/25 09:40:15;;;;;;;;;;;20.30;59.10;;;;;;5088734;28;20551;-68
2023/07/25 09:42:41;;;;;;;;;;;20.30;59.00;;;;;;5089451;28;20011;-68
2023/07/25 09:45:08;;;;;;;;;;;20.30;59.20;;;;;;5091696;28;20363;-68
2023/07/25 09:47:33;;;;;;;;;;;20.30;58.80;;;;;;5089846;28;19920;-68
2023/07/25 09:49:59;;;;;;;;;;;20.30;58.90;;;;;;5090111;28;19920;-69
2023/07/25 09:52:25;;;;;;;;;;;20.30;58.70;;;;;;5092008;28;19927;-69
2023/07/25 09:54:50;;;;;;;;;;;20.30;58.70;;;;;;5091560;28;19967;-69
2023/07/25 09:57:16;;;;;;;;;;;20.30;58.50;;;;;;5090886;28;20006;-68
2023/07/25 09:59:41;;;;;;;;;;;20.40;58.40;;;;;;5090058;28;19927;-68
2023/07/25 10:02:08;;;;;;;;;;;20.30;58.60;;;;;;5091253;28;19920;-69
2023/07/25 10:04:35;;;;;;;;;;;20.40;58.50;;;;;;5090345;28;19920;-68
2023/07/25 10:07:01;;;;;;;;;;;20.40;58.30;;;;;;5089997;28;20432;-69
2023/07/25 10:09:27;;;;;;;;;;;20.40;58.30;;;;;;5091291;28;20012;-69
2023/07/25 10:11:53;;;;;;;;;;;20.40;58.00;;;;;;5089760;28;19920;-67
2023/07/25 10:14:18;;;;;;;;;;;20.40;58.20;;;;;;5091110;28;19924;-68
2023/07/25 10:16:44;;;;;;;;;;;20.50;58.20;;;;;;5111210;28;19924;-67
2023/07/25 10:19:10;;;;;;;;;;;20.40;58.00;;;;;;5119163;28;19927;-67
2023/07/25 10:21:51;;;;;;;;;;;20.50;57.90;;;;;;5110440;28;19970;-67
2023/07/25 10:24:18;;;;;;;;;;;20.50;58.00;;;;;;5111308;28;19924;-68
2023/07/25 10:26:59;;;;;;;;;;;20.50;58.30;;;;;;5111412;28;19920;-68
2023/07/25 10:29:42;;;;;;;;;;;20.50;58.00;;;;;;5111042;28;19920;-68
2023/07/25 10:32:08;;;;;;;;;;;20.50;57.70;;;;;;5112269;28;20336;-68
2023/07/25 10:34:51;;;;;;;;;;;20.50;57.60;;;;;;5128291;28;19923;-68
2023/07/25 10:37:36;;;;;;;;;;;20.50;57.60;;;;;;5127979;28;19924;-68
2023/07/25 10:40:16;;;;;;;;;;;20.50;57.60;;;;;;5113614;28;20343;-67
2023/07/25 10:42:43;;;;;;;;;;;20.60;57.70;;;;;;5097789;28;19920;-67
2023/07/25 10:45:19;;;;;;;;;;;20.50;57.70;;;;;;5114297;27;19924;-67
2023/07/25 10:47:45;;;;;;;;;;;20.60;57.70;;;;;;5114111;28;19920;-67
2023/07/25 10:50:11;;;;;;;;;;;20.60;57.90;;;;;;5097319;28;20211;-67
2023/07/25 10:52:51;;;;;;;;;;;20.60;57.70;;;;;;5096940;28;20633;-65
2023/07/25 10:55:17;;;;;;;;;;;20.60;57.80;;;;;;5131341;27;19920;-67
2023/07/25 10:58:02;;;;;;;;;;;20.60;58.30;;;;;;5097077;28;19930;-68
2023/07/25 11:00:35;;;;;;;;;;;20.60;58.10;;;;;;5097223;28;19923;-67
2023/07/25 11:03:21;;;;;;;;;;;20.70;57.90;;;;;;5096753;28;19920;-67
2023/07/25 11:05:46;;;;;;;;;;;20.70;57.60;;;;;;5095194;28;19967;-68
2023/07/25 11:08:12;;;;;;;;;;;20.60;57.60;;;;;;5115065;28;19982;-68
2023/07/25 11:10:38;;;;;;;;;;;20.60;57.50;;;;;;5096662;28;19926;-67
2023/07/25 11:13:03;;;;;;;;;;;20.60;57.60;;;;;;5097132;28;19920;-67
2023/07/25 11:15:29;;;;;;;;;;;20.60;57.50;;;;;;5096386;28;20061;-67
2023/07/25 11:17:55;;;;;;;;;;;20.60;57.40;;;;;;5096665;28;19930;-68
2023/07/25 11:20:22;;;;;;;;;;;20.60;57.40;;;;;;5115104;28;20383;-68
2023/07/25 11:22:49;;;;;;;;;;;20.60;57.40;;;;;;5115054;28;19926;-67
2023/07/25 11:25:15;;;;;;;;;;;20.60;57.40;;;;;;5095182;28;20394;-68
2023/07/25 11:27:41;;;;;;;;;;;20.60;57.40;;;;;;5096582;28;19989;-67
2023/07/25 11:30:09;;;;;;;;;;;20.50;57.30;;;;;;5096069;28;19946;-68
2023/07/25 11:32:34;;;;;;;;;;;20.60;57.30;;;;;;5096572;28;19927;-67
2023/07/25 11:35:00;;;;;;;;;;;20.60;57.30;;;;;;5096462;28;19926;-68
2023/07/25 11:37:26;;;;;;;;;;;20.50;57.30;;;;;;5096250;28;19924;-68
2023/07/25 11:39:51;;;;;;;;;;;20.60;57.20;;;;;;5114581;28;19977;-68
2023/07/25 11:42:18;;;;;;;;;;;20.60;57.40;;;;;;5095832;28;20023;-68
2023/07/25 11:44:44;;;;;;;;;;;20.60;57.40;;;;;;5114389;28;19920;-68
2023/07/25 11:47:10;;;;;;;;;;;20.60;57.30;;;;;;5095767;28;19964;-67
2023/07/25 11:49:36;;;;;;;;;;;20.60;57.30;;;;;;5095644;28;19928;-68
2023/07/25 11:52:01;;;;;;;;;;;20.50;57.30;;;;;;5096316;28;19942;-67
2023/07/25 11:54:27;;;;;;;;;;;20.60;57.20;;;;;;5114478;28;20327;-67
2023/07/25 11:56:53;;;;;;;;;;;20.60;57.20;;;;;;5095957;28;20504;-68
2023/07/25 11:59:18;;;;;;;;;;;20.60;57.30;;;;;;5096236;28;19967;-68
2023/07/25 12:01:44;;;;;;;;;;;20.60;57.40;;;;;;5114263;28;20283;-68
2023/07/25 12:04:14;;;;;;;;;;;20.60;57.40;;;;;;5113031;28;19923;-67
2023/07/25 12:06:40;;;;;;;;;;;20.50;57.30;;;;;;5094676;28;19926;-68
2023/07/25 12:09:05;;;;;;;;;;;20.60;57.40;;;;;;5129821;27;19923;-67
2023/07/25 12:11:33;;;;;;;;;;;20.60;57.30;;;;;;5095606;28;19919;-68
2023/07/25 12:13:59;;;;;;;;;;;20.60;57.40;;;;;;5113533;28;20268;-67
2023/07/25 12:16:26;;;;;;;;;;;20.60;57.40;;;;;;5129465;27;19955;-68
2023/07/25 12:18:52;;;;;;;;;;;20.60;57.30;;;;;;5113715;28;19942;-68
2023/07/25 12:21:22;;;;;;;;;;;20.60;57.20;;;;;;5095279;28;19923;-67
2023/07/25 12:23:51;;;;;;;;;;;20.60;57.30;;;;;;5130021;27;19920;-66
2023/07/25 12:26:20;;;;;;;;;;;20.60;57.60;;;;;;5095606;28;19969;-66
2023/07/25 12:28:46;;;;;;;;;;;20.70;58.10;;;;;;5095315;28;20298;-67
2023/07/25 12:31:12;;;;;;;;;;;20.70;58.20;;;;;;5129612;27;19927;-65
2023/07/25 12:33:39;;;;;;;;;;;20.80;58.20;;;;;;5094771;28;19924;-66
2023/07/25 12:36:04;;;;;;;;;;;20.80;58.30;;;;;;5091602;28;19924;-65
2023/07/25 12:38:30;;;;;;;;;;;20.80;58.30;;;;;;5113206;28;19927;-66
2023/07/25 12:40:55;;;;;;;;;;;20.80;58.30;;;;;;5095329;28;19930;-66
2023/07/25 12:43:21;;;;;;;;;;;20.90;58.40;;;;;;5095415;28;19931;-68
2023/07/25 12:45:47;;;;;;;;;;;20.90;58.50;;;;;;5113247;28;19926;-65
2023/07/25 12:48:12;;;;;;;;;;;20.90;58.50;;;;;;5111436;28;19926;-66
2023/07/25 12:50:39;;;;;;;;;;;20.90;58.50;;;;;;5111541;28;19927;-65
2023/07/25 12:53:05;;;;;;;;;;;21.00;58.50;;;;;;5115462;27;19934;-65
2023/07/25 12:55:30;;;;;;;;;;;21.00;58.60;;;;;;5113085;27;20343;-66
2023/07/25 12:57:59;;;;;;;;;;;21.00;58.60;;;;;;5094539;28;19974;-64
2023/07/25 13:00:24;;;;;;;;;;;21.00;58.70;;;;;;5093479;28;19928;-64
2023/07/25 13:02:50;;;;;;;;;;;21.00;58.70;;;;;;5093575;28;19941;-66
2023/07/25 13:05:15;;;;;;;;;;;21.00;58.70;;;;;;5093307;28;19923;-66
2023/07/25 13:07:41;;;;;;;;;;;21.00;58.70;;;;;;5111540;28;19927;-67
2023/07/25 13:10:07;;;;;;;;;;;21.00;58.70;;;;;;5110428;28;19932;-67
2023/07/25 13:12:33;;;;;;;;;;;21.00;58.80;;;;;;5099365;27;20419;-67
2023/07/25 13:14:58;;;;;;;;;;;21.10;58.70;;;;;;5105953;28;19923;-64
2023/07/25 13:17:24;;;;;;;;;;;21.10;58.80;;;;;;5122580;27;19923;-66
2023/07/25 13:19:49;;;;;;;;;;;21.00;58.80;;;;;;5121265;28;19920;-65
2023/07/25 13:22:15;;;;;;;;;;;21.10;58.90;;;;;;5102701;28;20268;-65
2023/07/25 13:24:40;;;;;;;;;;;21.10;59.10;;;;;;5113660;27;20070;-65
2023/07/25 13:27:05;;;;;;;;;;;21.10;59.10;;;;;;5111791;28;20330;-65
2023/07/25 13:29:31;;;;;;;;;;;21.10;58.90;;;;;;5093626;28;19927;-66
2023/07/25 13:31:56;;;;;;;;;;;21.10;58.90;;;;;;5092787;28;19926;-68
2023/07/25 13:34:22;;;;;;;;;;;21.10;58.60;;;;;;5112227;28;20279;-68
2023/07/25 13:36:48;;;;;;;;;;;21.10;58.60;;;;;;5094288;28;20671;-67
2023/07/25 13:39:13;;;;;;;;;;;21.10;58.70;;;;;;5112342;28;19919;-66
2023/07/25 13:41:39;;;;;;;;;;;21.10;58.60;;;;;;5094295;28;19919;-67
2023/07/25 13:44:04;;;;;;;;;;;21.10;58.40;;;;;;5112650;28;19926;-67
2023/07/25 13:46:29;;;;;;;;;;;21.10;58.40;;;;;;5094531;28;19919;-67
2023/07/25 13:48:55;;;;;;;;;;;21.10;58.30;;;;;;5112197;28;19955;-67
2023/07/25 13:51:20;;;;;;;;;;;21.00;58.10;;;;;;5093605;28;19946;-67
2023/07/25 13:53:46;;;;;;;;;;;21.00;58.00;;;;;;5093985;28;20382;-68
2023/07/25 13:56:11;;;;;;;;;;;21.00;57.90;;;;;;5093876;28;19923;-68
2023/07/25 13:58:37;;;;;;;;;;;21.00;57.90;;;;;;5125744;28;19920;-67
2023/07/25 14:01:02;;;;;;;;;;;21.00;57.60;;;;;;5093375;28;19919;-67
2023/07/25 14:03:28;;;;;;;;;;;21.00;57.60;;;;;;5112468;28;19927;-67
2023/07/25 14:05:54;;;;;;;;;;;20.90;57.70;;;;;;5093327;28;19927;-67
2023/07/25 14:08:19;;;;;;;;;;;21.00;57.80;;;;;;5111858;28;19927;-67
2023/07/25 14:10:45;;;;;;;;;;;21.00;57.70;;;;;;5093524;28;19985;-67